createdAt,value
2022-08-05T00:09:35.751Z,100609.66
2022-08-05T00:19:44.004Z,100613.47
2022-08-05T00:29:48.942Z,100608.84
2022-08-05T00:39:58.653Z,100608.91
2022-08-05T00:50:02.017Z,100605.56
2022-08-05T01:00:07.316Z,100596.28
2022-08-05T01:10:16.797Z,100582.31
2022-08-05T01:20:46.330Z,100592.87
2022-08-05T01:30:57.012Z,100578.53
2022-08-05T01:41:01.966Z,100578.66
2022-08-05T01:51:12.408Z,100580.34
2022-08-05T02:01:24.630Z,100591.41
2022-08-05T02:11:42.110Z,100583.69
2022-08-05T02:21:54.634Z,100577.94
2022-08-05T02:31:58.421Z,100585.06
2022-08-05T02:42:09.984Z,100582.00
2022-08-05T02:52:30.896Z,100584.00
2022-08-05T03:02:39.689Z,100595.31
2022-08-05T03:12:42.666Z,100596.34
2022-08-05T03:22:49.868Z,100584.72
2022-08-05T03:32:54.344Z,100584.00
2022-08-05T03:42:57.599Z,100585.63
2022-08-05T03:55:50.893Z,100584.44
2022-08-05T04:03:37.957Z,100591.03
2022-08-05T04:13:49.676Z,100594.41
2022-08-05T04:23:57.204Z,100601.72
2022-08-05T04:34:31.996Z,100605.06
2022-08-05T04:44:32.875Z,100592.44
2022-08-05T04:54:35.846Z,100608.41
2022-08-05T05:04:44.003Z,100595.28
2022-08-05T05:14:51.429Z,100592.59
2022-08-05T05:24:56.788Z,100595.25
2022-08-05T05:35:02.310Z,100589.03
2022-08-05T05:45:07.345Z,100579.75
2022-08-05T05:55:13.242Z,100599.53
2022-08-05T06:05:17.288Z,100568.84
2022-08-05T06:15:23.932Z,100589.78
2022-08-05T06:26:12.425Z,100600.97
2022-08-05T06:36:03.620Z,100595.22
2022-08-05T06:46:13.009Z,100602.25
2022-08-05T06:56:26.341Z,100605.16
2022-08-05T07:06:29.833Z,100604.69
2022-08-05T07:17:56.788Z,100601.03
2022-08-05T07:27:13.949Z,100598.47
2022-08-05T07:37:17.522Z,100595.53
2022-08-05T07:47:25.814Z,100603.00
2022-08-05T07:57:50.478Z,100609.41
2022-08-05T08:07:59.617Z,100604.84
2022-08-05T08:18:07.022Z,100593.63
2022-08-05T08:28:18.768Z,100594.88
2022-08-05T08:38:38.850Z,100597.81
2022-08-05T08:49:08.062Z,100587.34
2022-08-05T08:59:14.974Z,100580.25
2022-08-05T09:09:22.551Z,100569.66
2022-08-05T09:19:27.928Z,100554.22
2022-08-05T09:29:48.005Z,100545.19
2022-08-05T09:39:52.292Z,100542.47
2022-08-05T09:50:01.011Z,100534.75
2022-08-05T10:00:10.468Z,100530.03
2022-08-05T10:10:15.745Z,100525.66
2022-08-05T10:20:21.001Z,100514.59
2022-08-05T10:31:19.959Z,100501.37
2022-08-05T10:42:38.774Z,100498.25
2022-08-05T10:53:00.219Z,100479.91
2022-08-05T11:03:22.790Z,100463.53
2022-08-05T11:13:54.804Z,100463.87
2022-08-05T11:24:30.081Z,100459.78
2022-08-05T11:34:37.802Z,100456.31
2022-08-05T11:44:53.250Z,100445.50
2022-08-05T11:54:59.250Z,100433.66
2022-08-05T12:05:32.205Z,100431.50
2022-08-05T12:15:49.670Z,100422.12
2022-08-05T12:25:56.596Z,100418.91
2022-08-05T12:36:02.560Z,100401.44
2022-08-05T12:46:05.754Z,100399.97
2022-08-05T12:56:34.116Z,100401.44
2022-08-05T13:06:41.298Z,100381.81
2022-08-05T13:16:57.583Z,100366.69
2022-08-05T13:27:01.881Z,100360.00
2022-08-05T13:37:05.017Z,100352.97
2022-08-05T13:47:10.576Z,100340.16
2022-08-05T13:57:49.049Z,100334.28
2022-08-05T14:08:05.550Z,100324.03
2022-08-05T14:18:14.915Z,100296.75
2022-08-05T14:28:26.078Z,100297.41
2022-08-05T15:00:33.405Z,100271.03
2022-08-05T15:10:37.245Z,100263.09
2022-08-05T15:20:40.122Z,100252.97
2022-08-05T15:30:45.739Z,100241.44
2022-08-05T15:41:02.781Z,100236.87
2022-08-05T15:51:13.264Z,100236.63
2022-08-05T16:01:17.925Z,100229.94
2022-08-05T16:11:40.168Z,100218.66
2022-08-05T16:22:01.154Z,100205.38
2022-08-05T16:32:09.991Z,100213.00
2022-08-05T16:42:18.567Z,100210.69
2022-08-05T16:52:32.596Z,100206.19
2022-08-05T17:02:36.732Z,100206.56
2022-08-05T17:12:51.676Z,100205.63
2022-08-05T17:22:57.523Z,100211.50
2022-08-05T17:33:01.773Z,100215.28
2022-08-05T17:43:07.828Z,100232.00
2022-08-05T17:53:13.181Z,100244.66
2022-08-05T18:03:59.394Z,100238.66
2022-08-05T18:13:43.760Z,100231.06
2022-08-05T18:23:47.364Z,100228.34
2022-08-05T18:33:51.615Z,100247.59
2022-08-05T18:43:54.722Z,100260.00
2022-08-05T18:53:59.343Z,100265.53
2022-08-05T19:04:05.505Z,100265.62
2022-08-05T19:14:53.518Z,100261.78
2022-08-05T19:24:34.461Z,100273.25
2022-08-05T19:34:38.469Z,100286.28
2022-08-05T19:44:45.058Z,100279.72
2022-08-05T19:54:49.849Z,100284.84
2022-08-05T20:04:53.223Z,100285.69
2022-08-05T20:14:56.443Z,100282.47
2022-08-05T20:24:59.674Z,100284.72
2022-08-05T20:35:02.958Z,100241.56
2022-08-05T20:45:07.043Z,100283.59
2022-08-05T20:56:07.965Z,100281.91
2022-08-05T21:05:38.309Z,100288.59
2022-08-05T21:15:57.072Z,100296.66
2022-08-05T21:26:00.470Z,100288.22
2022-08-05T21:36:07.361Z,100291.87
2022-08-05T21:46:11.890Z,100283.34
2022-08-05T21:56:16.775Z,100301.84
2022-08-05T22:06:22.897Z,100293.78
2022-08-05T22:16:50.731Z,100291.72
2022-08-05T22:27:17.221Z,100286.19
2022-08-05T22:47:49.956Z,100302.16
2022-08-05T22:57:58.424Z,100300.09
2022-08-05T23:08:01.416Z,100298.72
2022-08-05T23:18:06.093Z,100282.62
2022-08-05T23:28:15.776Z,100288.00
2022-08-05T23:38:21.385Z,100265.78
2022-08-05T23:48:26.354Z,100281.53
2022-08-05T23:58:31.934Z,100276.69
